Airfield :
LOGIN :

Register | Disclaimer

   EN    FR    IT 

 










Legend :    VFR   Marginal VFR   IFR   Intensive IFR   Very Intensive IFR
Visi :
Ceiling :
>= 8 km
>= 3000ft
5 to 8 km
1000 to 3000 ft
1500m to 5 km
500 to 1000 ft
800 to 1500m
200 to 500 ft
< 800m
< 200 ft
Symbols :   Thunderstorms  Fog  Heavy snow  Heavy precipitations  Wind > 20 kt
SIGMETs :     Misc.  Thunderstorms  Icing  Turbulence  Mountain Waves  Volcanic Ashes







- Airport Elevation : 163 ft
- IATA code : DGX


EGDX - St Athan

CURRENT METAR :
  • 191550Z AUTO 28010KT 9999 NCD 16/11 Q1021

EXPIRED METARs :
  • 191450Z 28011KT 9999 FEW023 SCT050 16/10 Q1021 BLU

TAF TAF EGDX
Valid from the 19 at 15:00 until the 19 at 18:00 UTC


191353Z 1915/1918 26008KT 9999 FEW030
PROB30
TEMPO 1916/1918 SCT021
No reported NOTAMs for that airfield.



MET'MAP, your aeronautical weather chart ! - Copyright ORBIFLY December 2007 - Disclaimer

ORBIFLY MET'MAP TEAM :

Programming & Development : Alexandra Zaïnal
Concept & Development : Baudouin d'Aumeries
Co-Development & Prog : Marc-Olivier Méhu
Technical & hardware support : Manuel Goepfert

Contact : metmap@orbifly.com




SOURCES & CREDITS :

   NOAA